Decoded Metar for LFRB (BREST in FRANCE) (IATA:BES) | Meteo·Mobile Aviation Weather
aviador You're here:

LFRB Decoded Metar

BREST in FRANCE
Report Time2019-01-19 07:00:00
UTC Time2019-01-19 07:11:57
Flight Rules vfr VFR
Wind220° at 03 kt
W.Decomp.*RWY 25: 2.7 kt HW 1.4 kt LCW
W.Rank220° ranks 1
Current wind is below 220° avg. (11.9)
Visibility9999 m
Phenomena:N/A
Clouds:N/A
Expected CloudBase > 400 ft AGL from Temp-Dew spread
CeilingNone
Temp06°C (ISA -8)
Dew Point05°C (93% RH)
AAT3.8°C
QNH1007 hPa
Density Alt-341 ft
Elevation338 ft
Report Wrong Elevation
Raw Report
METAR LFRB 190700Z AUTO 22003KT 9999 ///TCU 06/05 Q1007 TEMPO 4000
SHRA=

Extra information for LFRB:More info

Metar Taf Metar & Taf Last 4 Metars F.Rules Stats Wind Profile Meteogram Temp Stats Airport Information Weather charts Add Link Nearby VenuesMetar ALERT Operation Metar Decoded Social comments